Ames, Texas
Current Conditions -  °F | °C
As of 12:15 PM on Saturday 25 Oct 2014 (Local Time) from KBMT Reporting Station
Clear Clear  
Wind Chill: 77°   Ceiling: Unl
Heat Index: 78°   Visibility: 10mi
Dew Point: 51°   Wind: 0mph
Humidity: 41%   Direction: NA
Pressure: 30.17"   Gusts: NA
Location:  30.0821°N, 94.7401°W
Report Text: KBMT 251715Z AUTO 00000KT 10SM CLR 25/11 A3017 RMK AO2 T02490107
Loading
Personal Weather Stations






























Interactive Weather Map New forecast layout! Learn more

10-Day Weather Forecast

Advertisements
Track Severe Weather on mobile